createdAt,value
2019-01-14T00:02:53.179Z,1.20
2019-01-14T00:07:54.283Z,2.60
2019-01-14T00:12:55.483Z,3.73
2019-01-14T00:17:56.603Z,5.57
2019-01-14T00:22:57.720Z,3.60
2019-01-14T00:27:58.789Z,3.23
2019-01-14T00:32:59.873Z,2.40
2019-01-14T00:38:00.979Z,2.43
2019-01-14T00:43:02.615Z,2.10
2019-01-14T00:48:03.723Z,3.40
2019-01-14T00:53:04.815Z,3.00
2019-01-14T00:58:05.903Z,4.10
2019-01-14T01:03:07.203Z,2.60
2019-01-14T01:08:08.396Z,2.67
2019-01-14T01:13:09.493Z,3.40
2019-01-14T01:18:10.684Z,2.80
2019-01-14T01:23:11.779Z,1.70
2019-01-14T01:28:12.871Z,1.70
2019-01-14T01:33:13.993Z,4.37
2019-01-14T01:38:15.079Z,5.33
2019-01-14T01:43:16.205Z,6.33
2019-01-14T01:48:17.323Z,4.77
2019-01-14T01:53:18.419Z,4.53
2019-01-14T01:58:19.545Z,5.83
2019-01-14T02:03:20.639Z,5.40
2019-01-14T02:08:21.835Z,4.17
2019-01-14T02:13:22.926Z,5.27
2019-01-14T02:18:24.330Z,3.17
2019-01-14T02:23:25.447Z,3.90
2019-01-14T02:28:26.523Z,5.33
2019-01-14T02:33:27.630Z,5.23
2019-01-14T02:38:28.711Z,6.93
2019-01-14T02:43:29.819Z,3.90
2019-01-14T02:48:31.018Z,2.83
2019-01-14T02:53:32.108Z,3.80
2019-01-14T02:58:33.226Z,5.70
2019-01-14T03:03:34.343Z,4.63
2019-01-14T03:08:35.433Z,3.37
2019-01-14T03:13:36.527Z,8.90
2019-01-14T03:18:37.624Z,4.10
2019-01-14T03:23:38.707Z,4.07
2019-01-14T03:28:39.803Z,6.97
2019-01-14T03:33:40.919Z,2.07
2019-01-14T03:38:42.011Z,3.13
2019-01-14T03:43:43.134Z,5.03
2019-01-14T03:48:44.361Z,3.43
2019-01-14T03:53:45.456Z,3.37
2019-01-14T03:58:46.579Z,4.77
2019-01-14T04:03:47.700Z,2.07
2019-01-14T04:08:48.828Z,3.23
2019-01-14T04:13:50.014Z,3.20
2019-01-14T04:18:51.100Z,4.40
2019-01-14T04:23:52.200Z,3.00
2019-01-14T04:28:53.297Z,4.27
2019-01-14T04:33:54.582Z,5.73
2019-01-14T04:38:56.079Z,4.73
2019-01-14T04:43:57.206Z,4.77
2019-01-14T04:48:58.308Z,7.00
2019-01-14T04:53:59.417Z,4.83
2019-01-14T04:59:00.488Z,6.57
2019-01-14T05:04:01.589Z,4.77
2019-01-14T05:09:05.688Z,4.43
2019-01-14T05:14:06.779Z,4.57
2019-01-14T05:19:09.052Z,5.17
2019-01-14T05:24:10.142Z,7.50
2019-01-14T05:29:11.235Z,12.53
2019-01-14T05:34:12.358Z,12.63
2019-01-14T05:39:13.467Z,6.23
2019-01-14T05:44:14.583Z,7.27
2019-01-14T05:49:15.672Z,5.67
2019-01-14T05:54:16.764Z,5.63
2019-01-14T05:59:17.856Z,6.33
2019-01-14T06:04:18.962Z,5.83
2019-01-14T06:09:20.076Z,8.33
2019-01-14T06:14:21.178Z,3.27
2019-01-14T06:19:22.400Z,5.30
2019-01-14T06:24:23.492Z,5.23
2019-01-14T06:29:24.607Z,9.73
2019-01-14T06:34:25.704Z,5.43
2019-01-14T06:39:26.803Z,5.57
2019-01-14T06:44:27.923Z,5.50
2019-01-14T06:49:29.035Z,9.00
2019-01-14T06:54:30.125Z,8.03
2019-01-14T06:59:31.219Z,5.93
2019-01-14T07:04:32.311Z,6.47
2019-01-14T07:09:33.404Z,9.53
2019-01-14T07:14:34.500Z,10.00
2019-01-14T07:19:35.588Z,8.10
2019-01-14T07:24:36.779Z,8.63
2019-01-14T07:29:37.978Z,5.90
2019-01-14T07:34:39.086Z,7.30
2019-01-14T07:39:40.184Z,5.27
2019-01-14T07:44:41.303Z,4.57
2019-01-14T07:49:42.401Z,5.33
2019-01-14T07:54:43.530Z,4.73
2019-01-14T07:59:44.623Z,5.57
2019-01-14T08:04:45.724Z,5.13
2019-01-14T08:09:46.820Z,6.53
2019-01-14T08:14:47.931Z,6.37
2019-01-14T08:19:49.064Z,3.50
2019-01-14T08:24:50.152Z,8.20
2019-01-14T08:29:51.256Z,6.60
2019-01-14T08:34:52.376Z,5.57
2019-01-14T08:39:53.467Z,9.70
2019-01-14T08:44:54.879Z,7.83
2019-01-14T08:49:55.984Z,7.50
2019-01-14T08:54:57.079Z,6.73
2019-01-14T08:59:58.186Z,9.03
2019-01-14T09:04:59.307Z,10.80
2019-01-14T09:10:00.486Z,9.83
2019-01-14T09:15:01.882Z,6.73
2019-01-14T09:20:06.791Z,7.23
2019-01-14T09:25:08.397Z,5.23
2019-01-14T09:30:13.204Z,5.23
2019-01-14T09:35:14.418Z,6.03
2019-01-14T09:40:20.483Z,7.90
2019-01-14T09:45:21.596Z,5.20
2019-01-14T09:50:22.782Z,5.40
2019-01-14T09:55:23.887Z,6.60
2019-01-14T10:00:25.174Z,7.10
2019-01-14T10:05:26.271Z,7.73
2019-01-14T10:10:27.380Z,4.17
2019-01-14T10:15:28.472Z,5.37
2019-01-14T10:20:29.571Z,7.93
2019-01-14T10:25:32.272Z,5.70
2019-01-14T10:30:33.570Z,4.70
2019-01-14T10:35:34.789Z,6.97
2019-01-14T10:40:35.886Z,7.23
2019-01-14T10:45:37.109Z,4.23
2019-01-14T10:50:38.220Z,5.43
2019-01-14T10:55:39.322Z,5.37
2019-01-14T11:00:40.425Z,7.30
2019-01-14T11:05:41.552Z,5.27
2019-01-14T11:10:42.648Z,6.23
2019-01-14T11:15:43.746Z,4.20
2019-01-14T11:20:44.963Z,5.43
2019-01-14T11:25:46.239Z,5.30
2019-01-14T11:30:47.471Z,6.27
2019-01-14T11:35:48.624Z,9.57
2019-01-14T11:40:49.719Z,6.17
2019-01-14T11:45:50.845Z,12.30
2019-01-14T11:50:51.931Z,6.13
2019-01-14T11:55:53.022Z,6.07
2019-01-14T12:00:54.120Z,6.60
2019-01-14T12:05:55.215Z,5.57
2019-01-14T12:10:56.331Z,6.93
2019-01-14T12:15:57.406Z,5.33
2019-01-14T12:20:58.507Z,4.47
2019-01-14T12:25:59.610Z,4.70
2019-01-14T12:31:00.807Z,6.43
2019-01-14T12:36:02.204Z,6.10
2019-01-14T12:41:03.401Z,6.70
2019-01-14T12:46:04.531Z,3.43
2019-01-14T12:51:05.633Z,9.20
2019-01-14T12:56:06.736Z,5.43
2019-01-14T13:01:07.849Z,6.27
2019-01-14T13:06:08.965Z,7.57
2019-01-14T13:11:10.071Z,4.47
2019-01-14T13:16:11.166Z,3.57
2019-01-14T13:21:12.374Z,4.17
2019-01-14T13:26:13.598Z,4.50
2019-01-14T13:31:14.691Z,7.20
2019-01-14T13:36:16.220Z,4.63
2019-01-14T13:41:17.327Z,4.00
2019-01-14T13:46:18.759Z,3.00
2019-01-14T13:51:19.874Z,4.97
2019-01-14T13:56:20.964Z,2.37
2019-01-14T14:01:22.059Z,2.00
2019-01-14T14:06:23.158Z,1.37
2019-01-14T14:11:24.314Z,1.63
2019-01-14T14:16:25.418Z,2.30
2019-01-14T14:21:26.531Z,1.60
2019-01-14T14:26:28.547Z,5.97
2019-01-14T14:31:29.692Z,8.87
2019-01-14T14:36:30.799Z,13.87
2019-01-14T14:41:31.901Z,12.83
2019-01-14T14:46:33.103Z,16.87
2019-01-14T14:51:34.219Z,3.97
2019-01-14T14:56:35.311Z,2.03
2019-01-14T15:01:36.517Z,3.43
2019-01-14T15:06:37.737Z,2.70
2019-01-14T15:11:38.926Z,5.00
2019-01-14T15:16:40.039Z,7.63
2019-01-14T15:21:41.280Z,8.10
2019-01-14T15:26:42.394Z,10.60
2019-01-14T15:31:43.715Z,8.63
2019-01-14T15:36:44.948Z,10.20
2019-01-14T15:41:46.059Z,3.90
2019-01-14T15:46:47.192Z,3.13
2019-01-14T15:51:48.325Z,6.17
2019-01-14T15:56:49.540Z,5.80
2019-01-14T16:01:50.645Z,7.80
2019-01-14T16:06:51.759Z,9.20
2019-01-14T16:11:52.861Z,10.57
2019-01-14T16:16:53.984Z,11.90
2019-01-14T16:21:55.207Z,8.10
2019-01-14T16:26:56.321Z,9.37
2019-01-14T16:31:57.716Z,8.57
2019-01-14T16:36:58.945Z,8.80
2019-01-14T16:42:00.170Z,16.93
2019-01-14T16:47:01.309Z,12.33
2019-01-14T16:52:02.523Z,6.70
2019-01-14T16:57:03.779Z,11.83
2019-01-14T17:02:05.076Z,9.43
2019-01-14T17:07:06.191Z,8.43
2019-01-14T17:12:07.322Z,9.83
2019-01-14T17:17:08.442Z,9.87
2019-01-14T17:22:09.572Z,9.97
2019-01-14T17:27:10.685Z,12.07
2019-01-14T17:32:11.799Z,7.43
2019-01-14T17:37:12.896Z,14.23
2019-01-14T17:42:15.247Z,15.37
2019-01-14T17:47:16.548Z,8.27
2019-01-14T17:52:17.843Z,7.17
2019-01-14T17:57:19.159Z,8.30
2019-01-14T18:02:20.304Z,10.83
2019-01-14T18:07:21.913Z,11.47
2019-01-14T18:12:23.041Z,6.70
2019-01-14T18:17:24.159Z,11.63
2019-01-14T18:22:25.319Z,10.07
2019-01-14T18:27:26.640Z,4.77
2019-01-14T18:32:27.767Z,8.57
2019-01-14T18:37:28.919Z,9.33
2019-01-14T18:42:30.128Z,9.17
2019-01-14T18:47:31.337Z,8.37
2019-01-14T18:52:32.708Z,11.77
2019-01-14T18:57:34.108Z,10.10
2019-01-14T19:02:35.483Z,6.67
2019-01-14T19:07:36.983Z,6.23
2019-01-14T19:12:38.187Z,5.90
2019-01-14T19:17:39.454Z,5.30
2019-01-14T19:22:40.871Z,8.90
2019-01-14T19:27:42.150Z,3.87
2019-01-14T19:32:43.774Z,7.80
2019-01-14T19:37:45.386Z,4.33
2019-01-14T19:42:47.470Z,8.10
2019-01-14T19:47:49.064Z,5.83
2019-01-14T19:52:50.419Z,7.80
2019-01-14T19:57:51.836Z,4.83
2019-01-14T20:02:53.067Z,5.93
2019-01-14T20:07:54.783Z,3.73
2019-01-14T20:12:56.112Z,6.13
2019-01-14T20:17:57.250Z,6.70
2019-01-14T20:22:58.607Z,4.87
2019-01-14T20:27:59.915Z,5.80
2019-01-14T20:33:01.152Z,6.40
2019-01-14T20:38:02.645Z,5.77
2019-01-14T20:43:03.907Z,5.63
2019-01-14T20:48:05.282Z,6.33
2019-01-14T20:53:13.476Z,5.73
2019-01-14T20:58:09.654Z,6.10
2019-01-14T21:03:10.792Z,15.90
2019-01-14T21:08:12.225Z,8.87
2019-01-14T21:13:13.462Z,10.30
2019-01-14T21:18:14.616Z,11.57
2019-01-14T21:23:15.833Z,23.93
2019-01-14T21:28:16.945Z,21.50
2019-01-14T21:33:18.073Z,31.70
2019-01-14T21:38:19.213Z,21.27
2019-01-14T21:43:20.333Z,8.23
2019-01-14T21:48:21.440Z,24.53
2019-01-14T21:53:22.567Z,14.80
2019-01-14T21:58:23.759Z,11.43
2019-01-14T22:03:24.859Z,9.90
2019-01-14T22:08:25.977Z,6.90
2019-01-14T22:13:27.079Z,4.93
2019-01-14T22:18:28.188Z,6.10
2019-01-14T22:23:29.279Z,5.80
2019-01-14T22:28:30.380Z,7.83
2019-01-14T22:33:31.475Z,9.13
2019-01-14T22:38:32.596Z,5.03
2019-01-14T22:43:33.718Z,10.87
2019-01-14T22:48:34.962Z,9.60
2019-01-14T22:53:36.050Z,8.10
2019-01-14T22:58:37.143Z,11.03
2019-01-14T23:03:38.444Z,6.97
2019-01-14T23:08:39.552Z,6.00
2019-01-14T23:13:40.639Z,8.47
2019-01-14T23:18:41.742Z,8.97
2019-01-14T23:23:42.860Z,10.07
2019-01-14T23:28:43.966Z,14.87
2019-01-14T23:33:45.059Z,8.90
2019-01-14T23:38:46.144Z,10.30
2019-01-14T23:43:47.477Z,9.30
2019-01-14T23:48:48.584Z,10.03
2019-01-14T23:53:49.782Z,12.23
2019-01-14T23:58:50.912Z,9.60
